Swan Valley, Idaho
Current Conditions -  °F | °C
As of 12:56 PM on Tuesday 21 Oct 2014 (Local Time) from KDIJ Reporting Station
Light Rain Light Rain  
Wind Chill: 32°   Ceiling: 2400
Heat Index: 39°   Visibility: 7mi
Dew Point: 36°   Wind: 12mph
Humidity: 89%   Direction: 170°S
Pressure: 30.07"   Gusts: NA
Location:  43.46°N, 111.34°W
Report Text: KDIJ 211856Z AUTO 17010KT 7SM -RA BKN024 BKN031 OVC048 04/02 A3007 RMK AO2 T00380022 BKN V OVC P0004 SLP148
Loading
Personal Weather Stations






























Interactive Weather Map
Tropical Storm Tracking
New forecast layout! Learn more

10-Day Weather Forecast

Advertisements
Track Severe Weather on mobile